x

La Have Bank (44150) Wave Buoy

3:00pm - Wed 16th Apr 2014 All times are ADT. -3 hours from GMT.

  • Sig Wave height 12.1ft
  • Peak Period 11s
  • Wind
    25mph, 31mph gusts
  • Sea Temp 52°f
  • Sea Pressure 1020.6mb
  • La Have Bank
  • La Have Bank

More Historic Weather Station data

Upgrade to MSW Pro to gain access to the past 30 days of data for over 8000 Wavebouys and Weather Stations around the globe.

Join Pro

Comparision Forecast

View Surf forecast
   
Wed 04/16 3:00pm 12ft 11s 25 31 mph 1020.6mb 52f
2:00pm 14ft 10s 25 31 mph 1019.3mb 52f
1:00pm 13ft 9s 18 29 mph 1016.9mb 52f
12:00pm 14ft 10s 13 18 mph 1015.5mb 51f
11:00am 14ft 10s 34 40 mph 1011.6mb 51f
10:00am 14ft 10s 34 43 mph 1012mb 51f
9:00am 15ft 10s 34 40 mph 1012.5mb 51f
8:00am 14.5ft 10s 36 49 mph 1012mb 51f
7:00am 13ft 10s 36 45 mph 1011.9mb 51f
6:00am 13ft 10s 34 43 mph 1012.3mb 51f
5:00am 13.5ft 10s 34 40 mph 1012.9mb 51f
4:00am 12ft 10s 34 40 mph 1013.6mb 50f
3:00am 11ft 9s 34 40 mph 1014.5mb 50f
2:00am 11ft 7s 27 31 mph 1015.8mb 50f
1:00am 10ft 8s 29 38 mph 1016mb 50f
12:00am 9.5ft 8s 31 36 mph 1016.7mb 50f
Tue 04/15 11:00pm  -   -  31
mph
1016.7mb 50f
10:00pm 8ft 7s 31 36 mph 1017.4mb 50f
9:00pm 8ft 6s 29 36 mph 1017.7mb 50f
8:00pm 8ft 8s 27 34 mph 1017.8mb 50f
7:00pm 7.5ft 8s 25 29 mph 1018mb 50f
5:00pm 6ft 8s 22 25 mph 1018.6mb 50f
4:00pm 6ft 8s 20 25 mph 1019.2mb 50f
3:00pm 6ft 8s 20 22 mph 1019.8mb 50f
2:00pm 6ft 8s 20 22 mph 1020.4mb 50f
1:00pm 6ft 8s 18 22 mph 1021mb 50f
12:00pm 5.5ft 8s 18 20 mph 1021.4mb 50f
11:00am 4.5ft 5s 16 18 mph 1021.9mb 50f
10:00am 5ft 5s 18 20 mph 1022.7mb 50f
9:00am 5ft 6s 18 20 mph 1022.2mb 50f
8:00am 5ft 6s 20 25 mph 1021.9mb 50f
7:00am 4.5ft 5s 18 20 mph 1021.5mb 50f
6:00am 4.5ft 6s 18 22 mph 1021.5mb 50f
5:00am 4.5ft  -  18 22 mph 1021.3mb 50f
4:00am 4ft  -  16 18 mph 1021.8mb 50f
3:00am 3.5ft  -  18 20 mph 1021.9mb 50f
2:00am 4ft  -  18 20 mph 1022.1mb 50f
1:00am 3.5ft  -  18 20 mph 1022.6mb 50f
12:00am 3.5ft 5s 16 18 mph 1022.7mb 50f
Mon 04/14 11:00pm 3.5ft  -  16 18 mph 1023mb 50f
10:00pm 3.5ft 5s 16
mph
1023.2mb 51f
9:00pm 3.5ft 6s 13 16 mph 1023.1mb 51f
8:00pm 3.5ft 6s 13 16 mph 1023mb 51f
7:00pm 4ft  -  13 18 mph 1022.8mb 51f
6:00pm 4ft 5s 16 18 mph 1022.9mb 51f
5:00pm 4ft 7s 11 13 mph 1023.1mb 51f
4:00pm 4.5ft 5s 11 13 mph 1023.3mb 51f
3:00pm 4.5ft 6s 16 18 mph 1023.3mb 50f
2:00pm 4.5ft 6s 16 18 mph 1023.3mb 50f
1:00pm 4.5ft 6s 16
mph
1023.7mb 50f
12:00pm 4.5ft 5s 16 18 mph 1023.7mb 50f
11:00am 4.5ft 6s 16 18 mph 1023.7mb 49f
10:00am 5ft 6s 18 20 mph 1023.4mb 49f
9:00am  -   -  18
mph
- -
8:00am 5ft 5s 22 27 mph 1023.4mb 49f
7:00am 5ft 5s 20 25 mph 1023.6mb 50f
6:00am 5ft 5s 20 22 mph 1023.9mb 50f
5:00am 5ft 5s 20 22 mph 1024.6mb 50f
4:00am 5ft 6s 20 25 mph 1024.7mb 50f
3:00am 4.5ft 4s 20 22 mph 1024.8mb 50f
2:00am 4.5ft 5s 18 20 mph 1025.9mb 50f
1:00am 4.5ft  -  18 22 mph 1026.5mb 50f
12:00am 4ft 9s 16 20 mph 1027.4mb 50f
Sun 04/13 11:00pm 4ft 8s 16 20 mph 1028mb 50f
10:00pm 4ft 8s 16 18 mph 1028.1mb 50f
9:00pm 4.5ft 8s 16 18 mph 1028.4mb 50f
8:00pm 4ft 10s 16 20 mph 1028.4mb 50f
7:00pm 4ft 10s 13 16 mph 1028.8mb 51f
6:00pm 4ft 10s 13 16 mph 1028.9mb 51f
5:00pm 4ft 10s 13
mph
1029.4mb 50f
4:00pm 4ft 10s 13 16 mph 1028.9mb 50f
3:00pm 4ft 10s 13 16 mph 1029.4mb 50f
2:00pm 4ft 10s 13 18 mph 1029.7mb 52f
1:00pm 4ft 10s 13 18 mph 1029.7mb 52f
12:00pm 4.5ft 10s 16 18 mph 1029.4mb 52f
11:00am 5ft 10s 13 16 mph 1029.8mb 52f
10:00am 5ft 10s 9 13 mph 1029.6mb 52f
9:00am 5ft 10s 9 11 mph 1029.1mb 52f
8:00am 5.5ft 10s 9 11 mph 1028.5mb 52f
7:00am 6ft 10s 11 13 mph 1027.8mb 52f
6:00am 6ft 10s 11 13 mph 1027.1mb 52f
5:00am 6ft 10s 13 16 mph 1026.7mb 52f
4:00am 6ft 10s 13 18 mph 1026.3mb 52f
3:00am 6.5ft 9s 9 11 mph 1025.7mb 52f
2:00am 6ft 10s 9 11 mph 1025.6mb 52f
1:00am 6.5ft 10s 13 16 mph 1025.4mb 52f
12:00am 6ft 11s 16 18 mph 1024.9mb 52f
Sat 04/12 11:00pm 6ft 8s 13 18 mph 1024.4mb 52f
10:00pm 6.5ft 10s 13 18 mph 1024mb 52f
9:00pm 6.5ft 8s 13 16 mph 1022.9mb 52f
8:00pm 7.5ft 9s 16 18 mph 1021.5mb 52f